sensor_id;sensor_type;location;lat;lon;timestamp;temperature;humidity
24146;DHT22;12308;50.948;4.706;2022-09-27T00:00:31;11.00;99.90
24146;DHT22;12308;50.948;4.706;2022-09-27T00:02:57;11.00;99.90
24146;DHT22;12308;50.948;4.706;2022-09-27T00:05:23;11.10;99.90
24146;DHT22;12308;50.948;4.706;2022-09-27T00:07:49;11.10;99.90
24146;DHT22;12308;50.948;4.706;2022-09-27T00:10:14;11.10;99.90
24146;DHT22;12308;50.948;4.706;2022-09-27T00:12:40;11.00;99.90
24146;DHT22;12308;50.948;4.706;2022-09-27T00:15:07;11.00;99.90
24146;DHT22;12308;50.948;4.706;2022-09-27T00:17:35;11.10;99.90
24146;DHT22;12308;50.948;4.706;2022-09-27T00:20:02;11.20;99.90
24146;DHT22;12308;50.948;4.706;2022-09-27T00:22:28;11.10;99.90
24146;DHT22;12308;50.948;4.706;2022-09-27T00:24:54;11.10;99.90
24146;DHT22;12308;50.948;4.706;2022-09-27T00:27:20;11.00;99.90
24146;DHT22;12308;50.948;4.706;2022-09-27T00:29:46;10.90;99.90
24146;DHT22;12308;50.948;4.706;2022-09-27T00:32:13;11.00;99.90
24146;DHT22;12308;50.948;4.706;2022-09-27T00:34:39;11.00;99.90
24146;DHT22;12308;50.948;4.706;2022-09-27T00:37:06;11.00;99.90
24146;DHT22;12308;50.948;4.706;2022-09-27T00:39:32;10.90;99.90
24146;DHT22;12308;50.948;4.706;2022-09-27T00:41:57;10.90;99.90
24146;DHT22;12308;50.948;4.706;2022-09-27T00:47:11;11.00;99.90
24146;DHT22;12308;50.948;4.706;2022-09-27T00:50:02;11.00;99.90
24146;DHT22;12308;50.948;4.706;2022-09-27T00:52:42;11.00;99.90
24146;DHT22;12308;50.948;4.706;2022-09-27T00:55:17;11.00;99.90
24146;DHT22;12308;50.948;4.706;2022-09-27T00:57:45;11.00;99.90
24146;DHT22;12308;50.948;4.706;2022-09-27T01:00:12;11.00;99.90
24146;DHT22;12308;50.948;4.706;2022-09-27T01:02:40;11.10;99.90
24146;DHT22;12308;50.948;4.706;2022-09-27T01:05:09;10.90;99.90
24146;DHT22;12308;50.948;4.706;2022-09-27T01:07:36;10.90;99.90
24146;DHT22;12308;50.948;4.706;2022-09-27T01:10:02;10.90;99.90
24146;DHT22;12308;50.948;4.706;2022-09-27T01:12:57;10.90;99.90
24146;DHT22;12308;50.948;4.706;2022-09-27T01:15:40;10.90;99.90
24146;DHT22;12308;50.948;4.706;2022-09-27T01:18:19;10.90;99.90
24146;DHT22;12308;50.948;4.706;2022-09-27T01:36:54;10.70;99.90
24146;DHT22;12308;50.948;4.706;2022-09-27T01:42:10;10.60;99.90
24146;DHT22;12308;50.948;4.706;2022-09-27T01:47:55;10.70;99.90
24146;DHT22;12308;50.948;4.706;2022-09-27T01:50:32;10.60;99.90
24146;DHT22;12308;50.948;4.706;2022-09-27T01:53:04;10.70;99.90
24146;DHT22;12308;50.948;4.706;2022-09-27T01:55:34;10.60;99.90
24146;DHT22;12308;50.948;4.706;2022-09-27T01:58:14;10.70;99.90
24146;DHT22;12308;50.948;4.706;2022-09-27T02:00:43;10.60;99.90
24146;DHT22;12308;50.948;4.706;2022-09-27T02:03:15;10.50;99.90
24146;DHT22;12308;50.948;4.706;2022-09-27T02:05:58;10.50;99.90
24146;DHT22;12308;50.948;4.706;2022-09-27T02:08:35;10.50;99.90
24146;DHT22;12308;50.948;4.706;2022-09-27T02:11:07;10.60;99.90
24146;DHT22;12308;50.948;4.706;2022-09-27T02:13:37;10.50;99.90
24146;DHT22;12308;50.948;4.706;2022-09-27T02:16:28;10.60;99.90
24146;DHT22;12308;50.948;4.706;2022-09-27T02:19:37;10.50;99.90
24146;DHT22;12308;50.948;4.706;2022-09-27T02:30:44;10.50;99.90
24146;DHT22;12308;50.948;4.706;2022-09-27T02:33:10;10.40;99.90
24146;DHT22;12308;50.948;4.706;2022-09-27T02:35:36;10.50;99.90
24146;DHT22;12308;50.948;4.706;2022-09-27T02:38:03;10.50;99.90
24146;DHT22;12308;50.948;4.706;2022-09-27T02:40:33;10.60;99.90
24146;DHT22;12308;50.948;4.706;2022-09-27T02:42:59;10.50;99.90
24146;DHT22;12308;50.948;4.706;2022-09-27T02:45:34;10.60;99.90
24146;DHT22;12308;50.948;4.706;2022-09-27T02:50:58;10.50;99.90
24146;DHT22;12308;50.948;4.706;2022-09-27T02:53:38;10.60;99.90
24146;DHT22;12308;50.948;4.706;2022-09-27T02:56:26;10.60;99.90
24146;DHT22;12308;50.948;4.706;2022-09-27T02:59:04;10.60;99.90
24146;DHT22;12308;50.948;4.706;2022-09-27T03:01:44;10.70;99.90
24146;DHT22;12308;50.948;4.706;2022-09-27T03:04:17;10.80;99.90
24146;DHT22;12308;50.948;4.706;2022-09-27T03:06:48;10.90;99.90
24146;DHT22;12308;50.948;4.706;2022-09-27T03:09:21;10.90;99.90
24146;DHT22;12308;50.948;4.706;2022-09-27T03:11:46;10.80;99.90
24146;DHT22;12308;50.948;4.706;2022-09-27T03:14:12;10.90;99.90
24146;DHT22;12308;50.948;4.706;2022-09-27T03:16:38;10.80;99.90
24146;DHT22;12308;50.948;4.706;2022-09-27T03:19:04;10.70;99.90
24146;DHT22;12308;50.948;4.706;2022-09-27T03:21:29;10.80;99.90
24146;DHT22;12308;50.948;4.706;2022-09-27T03:23:55;10.80;99.90
24146;DHT22;12308;50.948;4.706;2022-09-27T03:26:21;10.70;99.90
24146;DHT22;12308;50.948;4.706;2022-09-27T03:28:47;10.70;99.90
24146;DHT22;12308;50.948;4.706;2022-09-27T03:31:12;10.70;99.90
24146;DHT22;12308;50.948;4.706;2022-09-27T03:33:39;10.50;99.90
24146;DHT22;12308;50.948;4.706;2022-09-27T03:36:05;10.50;99.90
24146;DHT22;12308;50.948;4.706;2022-09-27T03:38:31;10.40;99.90
24146;DHT22;12308;50.948;4.706;2022-09-27T03:40:57;10.50;99.90
24146;DHT22;12308;50.948;4.706;2022-09-27T03:43:24;10.60;99.90
24146;DHT22;12308;50.948;4.706;2022-09-27T03:45:49;10.50;99.90
24146;DHT22;12308;50.948;4.706;2022-09-27T03:48:15;10.50;99.90
24146;DHT22;12308;50.948;4.706;2022-09-27T03:50:41;10.50;99.90
24146;DHT22;12308;50.948;4.706;2022-09-27T03:53:07;10.50;99.90
24146;DHT22;12308;50.948;4.706;2022-09-27T03:55:32;10.60;99.90
24146;DHT22;12308;50.948;4.706;2022-09-27T03:57:58;10.60;99.90
24146;DHT22;12308;50.948;4.706;2022-09-27T04:00:24;10.60;99.90
24146;DHT22;12308;50.948;4.706;2022-09-27T04:02:50;10.70;99.90
24146;DHT22;12308;50.948;4.706;2022-09-27T04:05:16;10.70;99.90
24146;DHT22;12308;50.948;4.706;2022-09-27T04:07:48;10.70;99.90
24146;DHT22;12308;50.948;4.706;2022-09-27T04:10:14;10.80;99.90
24146;DHT22;12308;50.948;4.706;2022-09-27T04:12:40;10.80;99.90
24146;DHT22;12308;50.948;4.706;2022-09-27T04:15:07;10.70;99.90
24146;DHT22;12308;50.948;4.706;2022-09-27T04:17:33;10.90;99.90
24146;DHT22;12308;50.948;4.706;2022-09-27T04:19:59;10.90;99.90
24146;DHT22;12308;50.948;4.706;2022-09-27T04:22:27;11.00;99.90
24146;DHT22;12308;50.948;4.706;2022-09-27T04:24:52;10.90;99.90
24146;DHT22;12308;50.948;4.706;2022-09-27T04:27:18;10.70;99.90
24146;DHT22;12308;50.948;4.706;2022-09-27T04:29:44;10.80;99.90
24146;DHT22;12308;50.948;4.706;2022-09-27T04:32:11;10.80;99.90
24146;DHT22;12308;50.948;4.706;2022-09-27T04:34:37;10.80;99.90
24146;DHT22;12308;50.948;4.706;2022-09-27T04:37:21;10.70;99.90
24146;DHT22;12308;50.948;4.706;2022-09-27T04:39:47;10.60;99.90
24146;DHT22;12308;50.948;4.706;2022-09-27T04:42:14;10.50;99.90
24146;DHT22;12308;50.948;4.706;2022-09-27T04:44:40;10.30;99.90
24146;DHT22;12308;50.948;4.706;2022-09-27T04:47:05;10.30;99.90
24146;DHT22;12308;50.948;4.706;2022-09-27T04:49:31;10.40;99.90
24146;DHT22;12308;50.948;4.706;2022-09-27T04:51:57;10.50;99.90
24146;DHT22;12308;50.948;4.706;2022-09-27T04:54:23;10.50;99.90
24146;DHT22;12308;50.948;4.706;2022-09-27T04:56:48;10.50;99.90
24146;DHT22;12308;50.948;4.706;2022-09-27T04:59:14;10.50;99.90
24146;DHT22;12308;50.948;4.706;2022-09-27T05:01:40;10.50;99.90
24146;DHT22;12308;50.948;4.706;2022-09-27T05:04:06;10.70;99.90
24146;DHT22;12308;50.948;4.706;2022-09-27T05:06:32;10.70;99.90
24146;DHT22;12308;50.948;4.706;2022-09-27T05:08:58;10.60;99.90
24146;DHT22;12308;50.948;4.706;2022-09-27T05:11:24;10.60;99.90
24146;DHT22;12308;50.948;4.706;2022-09-27T05:13:50;10.70;99.90
24146;DHT22;12308;50.948;4.706;2022-09-27T05:16:16;10.80;99.90
24146;DHT22;12308;50.948;4.706;2022-09-27T05:18:42;10.90;99.90
24146;DHT22;12308;50.948;4.706;2022-09-27T05:21:08;11.00;99.90
24146;DHT22;12308;50.948;4.706;2022-09-27T05:23:33;10.90;99.90
24146;DHT22;12308;50.948;4.706;2022-09-27T05:26:06;10.90;99.90
24146;DHT22;12308;50.948;4.706;2022-09-27T05:28:32;10.80;99.90
24146;DHT22;12308;50.948;4.706;2022-09-27T05:31:00;10.80;99.90
24146;DHT22;12308;50.948;4.706;2022-09-27T05:33:26;10.80;99.90
24146;DHT22;12308;50.948;4.706;2022-09-27T05:35:53;10.80;99.90
24146;DHT22;12308;50.948;4.706;2022-09-27T05:38:19;10.80;99.90
24146;DHT22;12308;50.948;4.706;2022-09-27T05:40:45;10.90;99.90
24146;DHT22;12308;50.948;4.706;2022-09-27T05:43:12;11.00;99.90
24146;DHT22;12308;50.948;4.706;2022-09-27T05:45:38;11.10;99.90
24146;DHT22;12308;50.948;4.706;2022-09-27T05:48:04;11.10;99.90
24146;DHT22;12308;50.948;4.706;2022-09-27T05:50:30;10.90;99.90
24146;DHT22;12308;50.948;4.706;2022-09-27T05:52:55;10.90;99.90
24146;DHT22;12308;50.948;4.706;2022-09-27T05:55:22;10.90;99.90
24146;DHT22;12308;50.948;4.706;2022-09-27T05:57:59;11.00;99.90
24146;DHT22;12308;50.948;4.706;2022-09-27T06:00:26;11.10;99.90
24146;DHT22;12308;50.948;4.706;2022-09-27T06:02:53;11.20;99.90
24146;DHT22;12308;50.948;4.706;2022-09-27T06:05:19;11.20;99.90
24146;DHT22;12308;50.948;4.706;2022-09-27T06:07:45;11.30;99.90
24146;DHT22;12308;50.948;4.706;2022-09-27T06:10:15;11.00;99.90
24146;DHT22;12308;50.948;4.706;2022-09-27T06:12:41;11.00;99.90
24146;DHT22;12308;50.948;4.706;2022-09-27T06:15:07;10.90;99.90
24146;DHT22;12308;50.948;4.706;2022-09-27T06:17:33;10.80;99.90
24146;DHT22;12308;50.948;4.706;2022-09-27T06:19:59;10.90;99.90
24146;DHT22;12308;50.948;4.706;2022-09-27T06:22:25;10.80;99.90
24146;DHT22;12308;50.948;4.706;2022-09-27T06:24:51;10.80;99.90
24146;DHT22;12308;50.948;4.706;2022-09-27T06:27:16;10.70;99.90
24146;DHT22;12308;50.948;4.706;2022-09-27T06:29:43;10.90;99.90
24146;DHT22;12308;50.948;4.706;2022-09-27T06:32:09;10.90;99.90
24146;DHT22;12308;50.948;4.706;2022-09-27T06:34:35;10.90;99.90
24146;DHT22;12308;50.948;4.706;2022-09-27T06:37:01;11.00;99.90
24146;DHT22;12308;50.948;4.706;2022-09-27T06:39:27;11.10;99.90
24146;DHT22;12308;50.948;4.706;2022-09-27T06:41:55;11.10;99.90
24146;DHT22;12308;50.948;4.706;2022-09-27T06:44:22;11.20;99.90
24146;DHT22;12308;50.948;4.706;2022-09-27T06:46:52;11.30;99.90
24146;DHT22;12308;50.948;4.706;2022-09-27T06:49:20;11.30;99.90
24146;DHT22;12308;50.948;4.706;2022-09-27T06:51:47;11.40;99.90
24146;DHT22;12308;50.948;4.706;2022-09-27T06:54:13;11.40;99.90
24146;DHT22;12308;50.948;4.706;2022-09-27T06:56:39;11.50;99.90
24146;DHT22;12308;50.948;4.706;2022-09-27T06:59:04;11.40;99.90
24146;DHT22;12308;50.948;4.706;2022-09-27T07:01:56;11.40;99.90
24146;DHT22;12308;50.948;4.706;2022-09-27T07:04:22;11.40;99.90
24146;DHT22;12308;50.948;4.706;2022-09-27T07:06:49;11.40;99.90
24146;DHT22;12308;50.948;4.706;2022-09-27T07:09:15;11.30;99.90
24146;DHT22;12308;50.948;4.706;2022-09-27T07:11:41;11.30;99.90
24146;DHT22;12308;50.948;4.706;2022-09-27T07:14:09;11.40;99.90
24146;DHT22;12308;50.948;4.706;2022-09-27T07:16:35;11.40;99.90
24146;DHT22;12308;50.948;4.706;2022-09-27T07:19:01;11.10;99.90
24146;DHT22;12308;50.948;4.706;2022-09-27T07:21:26;11.20;99.90
24146;DHT22;12308;50.948;4.706;2022-09-27T07:23:53;11.40;99.90
24146;DHT22;12308;50.948;4.706;2022-09-27T07:26:18;11.60;99.90
24146;DHT22;12308;50.948;4.706;2022-09-27T07:28:44;11.60;99.90
24146;DHT22;12308;50.948;4.706;2022-09-27T07:31:11;11.70;99.90
24146;DHT22;12308;50.948;4.706;2022-09-27T07:33:37;11.70;99.90
24146;DHT22;12308;50.948;4.706;2022-09-27T07:36:06;11.80;99.90
24146;DHT22;12308;50.948;4.706;2022-09-27T07:38:32;11.50;99.90
24146;DHT22;12308;50.948;4.706;2022-09-27T07:41:03;11.50;99.90
24146;DHT22;12308;50.948;4.706;2022-09-27T07:43:29;11.50;99.90
24146;DHT22;12308;50.948;4.706;2022-09-27T07:45:55;11.50;99.90
24146;DHT22;12308;50.948;4.706;2022-09-27T07:48:21;11.70;99.90
24146;DHT22;12308;50.948;4.706;2022-09-27T07:50:46;11.90;99.90
24146;DHT22;12308;50.948;4.706;2022-09-27T07:53:12;11.80;99.90
24146;DHT22;12308;50.948;4.706;2022-09-27T07:55:39;11.80;99.90
24146;DHT22;12308;50.948;4.706;2022-09-27T07:58:07;11.90;99.90
24146;DHT22;12308;50.948;4.706;2022-09-27T08:00:34;12.00;99.90
24146;DHT22;12308;50.948;4.706;2022-09-27T08:03:09;12.00;99.90
24146;DHT22;12308;50.948;4.706;2022-09-27T08:05:37;12.00;99.90
24146;DHT22;12308;50.948;4.706;2022-09-27T08:08:03;11.90;99.90
24146;DHT22;12308;50.948;4.706;2022-09-27T08:10:33;11.90;99.90
24146;DHT22;12308;50.948;4.706;2022-09-27T08:13:03;11.60;99.90
24146;DHT22;12308;50.948;4.706;2022-09-27T08:15:33;11.50;99.90
24146;DHT22;12308;50.948;4.706;2022-09-27T08:18:00;11.70;99.90
24146;DHT22;12308;50.948;4.706;2022-09-27T08:20:26;11.70;99.90
24146;DHT22;12308;50.948;4.706;2022-09-27T08:22:52;11.90;99.90
24146;DHT22;12308;50.948;4.706;2022-09-27T08:25:17;12.00;99.90
24146;DHT22;12308;50.948;4.706;2022-09-27T08:27:43;11.90;99.90
24146;DHT22;12308;50.948;4.706;2022-09-27T08:30:18;12.00;99.90
24146;DHT22;12308;50.948;4.706;2022-09-27T08:32:44;12.00;99.90
24146;DHT22;12308;50.948;4.706;2022-09-27T08:35:09;12.00;99.90
24146;DHT22;12308;50.948;4.706;2022-09-27T08:37:40;12.00;99.90
24146;DHT22;12308;50.948;4.706;2022-09-27T08:40:06;12.20;99.90
24146;DHT22;12308;50.948;4.706;2022-09-27T08:43:05;12.10;99.90
24146;DHT22;12308;50.948;4.706;2022-09-27T08:45:40;12.00;99.90
24146;DHT22;12308;50.948;4.706;2022-09-27T08:48:09;12.00;99.90
24146;DHT22;12308;50.948;4.706;2022-09-27T08:50:36;12.10;99.90
24146;DHT22;12308;50.948;4.706;2022-09-27T08:53:21;12.10;99.90
24146;DHT22;12308;50.948;4.706;2022-09-27T08:55:50;12.00;99.90
24146;DHT22;12308;50.948;4.706;2022-09-27T08:58:26;11.90;99.90
24146;DHT22;12308;50.948;4.706;2022-09-27T09:00:55;11.70;99.90
24146;DHT22;12308;50.948;4.706;2022-09-27T09:03:24;11.70;99.90
24146;DHT22;12308;50.948;4.706;2022-09-27T09:11:48;12.10;99.90
24146;DHT22;12308;50.948;4.706;2022-09-27T09:14:46;12.00;99.90
24146;DHT22;12308;50.948;4.706;2022-09-27T09:26:04;12.00;99.90
24146;DHT22;12308;50.948;4.706;2022-09-27T09:28:36;11.90;99.90
24146;DHT22;12308;50.948;4.706;2022-09-27T09:31:19;11.90;99.90
24146;DHT22;12308;50.948;4.706;2022-09-27T09:33:52;11.70;99.90
24146;DHT22;12308;50.948;4.706;2022-09-27T09:44:28;11.60;99.90
24146;DHT22;12308;50.948;4.706;2022-09-27T09:46:58;11.60;99.90
24146;DHT22;12308;50.948;4.706;2022-09-27T09:49:33;11.50;99.90
24146;DHT22;12308;50.948;4.706;2022-09-27T09:52:25;11.40;99.90
24146;DHT22;12308;50.948;4.706;2022-09-27T09:55:03;11.60;99.90
24146;DHT22;12308;50.948;4.706;2022-09-27T09:57:33;11.70;99.90
24146;DHT22;12308;50.948;4.706;2022-09-27T10:00:12;11.90;99.90
24146;DHT22;12308;50.948;4.706;2022-09-27T10:02:41;11.90;99.90
24146;DHT22;12308;50.948;4.706;2022-09-27T10:05:12;12.00;99.90
24146;DHT22;12308;50.948;4.706;2022-09-27T10:07:38;12.10;99.90
24146;DHT22;12308;50.948;4.706;2022-09-27T10:10:06;12.10;99.90
24146;DHT22;12308;50.948;4.706;2022-09-27T10:12:32;12.30;99.90
24146;DHT22;12308;50.948;4.706;2022-09-27T10:15:00;12.50;99.90
24146;DHT22;12308;50.948;4.706;2022-09-27T10:17:40;12.70;99.90
24146;DHT22;12308;50.948;4.706;2022-09-27T10:20:07;12.90;99.90
24146;DHT22;12308;50.948;4.706;2022-09-27T10:22:42;13.10;99.90
24146;DHT22;12308;50.948;4.706;2022-09-27T10:25:09;13.40;99.90
24146;DHT22;12308;50.948;4.706;2022-09-27T10:27:44;13.30;99.90
24146;DHT22;12308;50.948;4.706;2022-09-27T10:30:30;13.50;99.90
24146;DHT22;12308;50.948;4.706;2022-09-27T10:33:14;13.50;99.90
24146;DHT22;12308;50.948;4.706;2022-09-27T10:35:43;13.60;99.90
24146;DHT22;12308;50.948;4.706;2022-09-27T10:40:42;13.40;99.90
24146;DHT22;12308;50.948;4.706;2022-09-27T10:43:30;13.60;99.90
24146;DHT22;12308;50.948;4.706;2022-09-27T10:48:31;14.30;99.90
24146;DHT22;12308;50.948;4.706;2022-09-27T10:51:05;14.20;99.90
24146;DHT22;12308;50.948;4.706;2022-09-27T10:53:33;14.30;99.90
24146;DHT22;12308;50.948;4.706;2022-09-27T10:56:00;14.30;99.90
24146;DHT22;12308;50.948;4.706;2022-09-27T10:58:33;14.20;99.90
24146;DHT22;12308;50.948;4.706;2022-09-27T11:01:09;14.60;99.90
24146;DHT22;12308;50.948;4.706;2022-09-27T11:03:44;15.00;99.90
24146;DHT22;12308;50.948;4.706;2022-09-27T11:06:37;14.90;99.90
24146;DHT22;12308;50.948;4.706;2022-09-27T11:09:22;14.60;99.90
24146;DHT22;12308;50.948;4.706;2022-09-27T11:12:04;14.50;99.90
24146;DHT22;12308;50.948;4.706;2022-09-27T11:14:30;14.50;99.90
24146;DHT22;12308;50.948;4.706;2022-09-27T11:30:10;14.60;99.90
24146;DHT22;12308;50.948;4.706;2022-09-27T11:35:26;14.30;99.90
24146;DHT22;12308;50.948;4.706;2022-09-27T11:38:16;13.90;99.90
24146;DHT22;12308;50.948;4.706;2022-09-27T11:41:10;13.30;99.90
24146;DHT22;12308;50.948;4.706;2022-09-27T11:54:25;11.90;99.90
24146;DHT22;12308;50.948;4.706;2022-09-27T11:57:01;11.80;99.90
24146;DHT22;12308;50.948;4.706;2022-09-27T11:59:48;11.60;99.90
24146;DHT22;12308;50.948;4.706;2022-09-27T12:08:30;12.10;99.90
24146;DHT22;12308;50.948;4.706;2022-09-27T12:10:58;12.50;99.90
24146;DHT22;12308;50.948;4.706;2022-09-27T12:13:35;12.80;99.90
24146;DHT22;12308;50.948;4.706;2022-09-27T12:16:03;12.90;99.90
24146;DHT22;12308;50.948;4.706;2022-09-27T12:18:32;13.00;99.90
24146;DHT22;12308;50.948;4.706;2022-09-27T12:21:01;13.10;99.90
24146;DHT22;12308;50.948;4.706;2022-09-27T12:26:04;13.40;99.90
24146;DHT22;12308;50.948;4.706;2022-09-27T12:31:20;13.70;99.90
24146;DHT22;12308;50.948;4.706;2022-09-27T12:36:38;13.70;99.90
24146;DHT22;12308;50.948;4.706;2022-09-27T12:42:02;13.70;99.90
24146;DHT22;12308;50.948;4.706;2022-09-27T12:44:37;13.80;99.90
24146;DHT22;12308;50.948;4.706;2022-09-27T12:47:29;13.90;99.90
24146;DHT22;12308;50.948;4.706;2022-09-27T12:52:54;13.90;99.90
24146;DHT22;12308;50.948;4.706;2022-09-27T12:55:33;13.70;99.90
24146;DHT22;12308;50.948;4.706;2022-09-27T13:03:54;13.80;99.90
24146;DHT22;12308;50.948;4.706;2022-09-27T13:06:40;14.00;99.90
24146;DHT22;12308;50.948;4.706;2022-09-27T13:12:12;14.00;99.90
24146;DHT22;12308;50.948;4.706;2022-09-27T13:17:33;14.00;99.90
24146;DHT22;12308;50.948;4.706;2022-09-27T13:22:58;14.30;99.90
24146;DHT22;12308;50.948;4.706;2022-09-27T13:31:14;14.20;99.90
24146;DHT22;12308;50.948;4.706;2022-09-27T13:33:48;13.90;99.90
24146;DHT22;12308;50.948;4.706;2022-09-27T13:46:54;13.70;99.90
24146;DHT22;12308;50.948;4.706;2022-09-27T13:49:41;13.90;99.90
24146;DHT22;12308;50.948;4.706;2022-09-27T13:52:34;14.00;99.90
24146;DHT22;12308;50.948;4.706;2022-09-27T13:55:03;14.10;99.90
24146;DHT22;12308;50.948;4.706;2022-09-27T13:58:04;14.50;99.90
24146;DHT22;12308;50.948;4.706;2022-09-27T14:00:49;14.70;99.90
24146;DHT22;12308;50.948;4.706;2022-09-27T14:03:25;14.90;99.90
24146;DHT22;12308;50.948;4.706;2022-09-27T14:06:14;15.00;99.90
24146;DHT22;12308;50.948;4.706;2022-09-27T14:08:52;14.80;99.90
24146;DHT22;12308;50.948;4.706;2022-09-27T14:11:27;15.10;99.90
24146;DHT22;12308;50.948;4.706;2022-09-27T14:13:55;15.10;99.90
24146;DHT22;12308;50.948;4.706;2022-09-27T14:16:21;14.90;99.90
24146;DHT22;12308;50.948;4.706;2022-09-27T14:18:49;14.80;99.90
24146;DHT22;12308;50.948;4.706;2022-09-27T14:21:25;14.60;99.90
24146;DHT22;12308;50.948;4.706;2022-09-27T14:23:51;14.50;99.90
24146;DHT22;12308;50.948;4.706;2022-09-27T14:26:26;14.40;99.90
24146;DHT22;12308;50.948;4.706;2022-09-27T14:28:52;14.30;99.90
24146;DHT22;12308;50.948;4.706;2022-09-27T14:31:23;14.30;99.90
24146;DHT22;12308;50.948;4.706;2022-09-27T14:33:49;14.10;99.90
24146;DHT22;12308;50.948;4.706;2022-09-27T14:39:29;13.80;99.90
24146;DHT22;12308;50.948;4.706;2022-09-27T14:41:57;13.80;99.90
24146;DHT22;12308;50.948;4.706;2022-09-27T14:44:24;13.70;99.90
24146;DHT22;12308;50.948;4.706;2022-09-27T14:47:18;13.70;99.90
24146;DHT22;12308;50.948;4.706;2022-09-27T14:49:53;14.00;99.90
24146;DHT22;12308;50.948;4.706;2022-09-27T14:52:25;14.40;99.90
24146;DHT22;12308;50.948;4.706;2022-09-27T14:54:59;14.80;99.90
24146;DHT22;12308;50.948;4.706;2022-09-27T14:57:26;15.20;99.90
24146;DHT22;12308;50.948;4.706;2022-09-27T14:59:52;15.40;99.90
24146;DHT22;12308;50.948;4.706;2022-09-27T15:02:20;15.40;99.90
24146;DHT22;12308;50.948;4.706;2022-09-27T15:04:49;15.20;99.90
24146;DHT22;12308;50.948;4.706;2022-09-27T15:07:17;14.90;99.90
24146;DHT22;12308;50.948;4.706;2022-09-27T15:09:43;14.70;99.90
24146;DHT22;12308;50.948;4.706;2022-09-27T15:12:12;14.80;99.90
24146;DHT22;12308;50.948;4.706;2022-09-27T15:14:40;14.70;99.90
24146;DHT22;12308;50.948;4.706;2022-09-27T15:17:16;14.70;99.90
24146;DHT22;12308;50.948;4.706;2022-09-27T15:20:37;14.70;99.90
24146;DHT22;12308;50.948;4.706;2022-09-27T15:22:44;14.30;99.90
24146;DHT22;12308;50.948;4.706;2022-09-27T15:25:38;14.40;99.90
24146;DHT22;12308;50.948;4.706;2022-09-27T15:28:16;14.00;99.90
24146;DHT22;12308;50.948;4.706;2022-09-27T15:30:54;13.50;99.90
24146;DHT22;12308;50.948;4.706;2022-09-27T15:33:25;13.20;99.90
24146;DHT22;12308;50.948;4.706;2022-09-27T15:35:54;12.90;99.90
24146;DHT22;12308;50.948;4.706;2022-09-27T15:38:39;12.80;99.90
24146;DHT22;12308;50.948;4.706;2022-09-27T15:41:15;12.80;99.90
24146;DHT22;12308;50.948;4.706;2022-09-27T15:43:49;12.70;99.90
24146;DHT22;12308;50.948;4.706;2022-09-27T15:51:44;13.20;99.90
24146;DHT22;12308;50.948;4.706;2022-09-27T15:54:10;13.40;99.90
24146;DHT22;12308;50.948;4.706;2022-09-27T15:56:39;13.60;99.90
24146;DHT22;12308;50.948;4.706;2022-09-27T15:59:08;13.70;99.90
24146;DHT22;12308;50.948;4.706;2022-09-27T16:01:37;13.60;99.90
24146;DHT22;12308;50.948;4.706;2022-09-27T16:04:02;13.70;99.90
24146;DHT22;12308;50.948;4.706;2022-09-27T16:06:28;13.50;99.90
24146;DHT22;12308;50.948;4.706;2022-09-27T16:08:54;13.50;99.90
24146;DHT22;12308;50.948;4.706;2022-09-27T16:11:20;13.40;99.90
24146;DHT22;12308;50.948;4.706;2022-09-27T16:13:46;13.30;99.90
24146;DHT22;12308;50.948;4.706;2022-09-27T16:16:14;13.40;99.90
24146;DHT22;12308;50.948;4.706;2022-09-27T16:18:40;13.40;99.90
24146;DHT22;12308;50.948;4.706;2022-09-27T16:21:06;13.40;99.90
24146;DHT22;12308;50.948;4.706;2022-09-27T16:23:33;13.50;99.90
24146;DHT22;12308;50.948;4.706;2022-09-27T16:25:59;13.60;99.90
24146;DHT22;12308;50.948;4.706;2022-09-27T16:28:24;13.80;99.90
24146;DHT22;12308;50.948;4.706;2022-09-27T16:30:50;13.90;99.90
24146;DHT22;12308;50.948;4.706;2022-09-27T16:33:16;13.90;99.90
24146;DHT22;12308;50.948;4.706;2022-09-27T16:35:42;14.00;99.90
24146;DHT22;12308;50.948;4.706;2022-09-27T16:38:07;14.00;99.90
24146;DHT22;12308;50.948;4.706;2022-09-27T16:40:33;14.10;99.90
24146;DHT22;12308;50.948;4.706;2022-09-27T16:42:59;14.00;99.90
24146;DHT22;12308;50.948;4.706;2022-09-27T16:45:24;13.90;99.90
24146;DHT22;12308;50.948;4.706;2022-09-27T16:47:58;13.90;99.90
24146;DHT22;12308;50.948;4.706;2022-09-27T16:50:23;13.90;99.90
24146;DHT22;12308;50.948;4.706;2022-09-27T16:53:08;13.80;99.90
24146;DHT22;12308;50.948;4.706;2022-09-27T16:55:35;13.80;99.90
24146;DHT22;12308;50.948;4.706;2022-09-27T16:58:00;13.80;99.90
24146;DHT22;12308;50.948;4.706;2022-09-27T17:00:28;13.70;99.90
24146;DHT22;12308;50.948;4.706;2022-09-27T17:02:55;13.50;99.90
24146;DHT22;12308;50.948;4.706;2022-09-27T17:05:21;13.30;99.90
24146;DHT22;12308;50.948;4.706;2022-09-27T17:07:51;13.20;99.90
24146;DHT22;12308;50.948;4.706;2022-09-27T17:10:21;13.10;99.90
24146;DHT22;12308;50.948;4.706;2022-09-27T17:12:47;13.00;99.90
24146;DHT22;12308;50.948;4.706;2022-09-27T17:15:14;13.00;99.90
24146;DHT22;12308;50.948;4.706;2022-09-27T17:17:40;13.10;99.90
24146;DHT22;12308;50.948;4.706;2022-09-27T17:20:06;13.00;99.90
24146;DHT22;12308;50.948;4.706;2022-09-27T17:22:32;13.00;99.90
24146;DHT22;12308;50.948;4.706;2022-09-27T17:24:57;12.90;99.90
24146;DHT22;12308;50.948;4.706;2022-09-27T17:27:25;12.80;99.90
24146;DHT22;12308;50.948;4.706;2022-09-27T17:29:51;12.80;99.90
24146;DHT22;12308;50.948;4.706;2022-09-27T17:32:17;12.90;99.90
24146;DHT22;12308;50.948;4.706;2022-09-27T17:34:46;13.00;99.90
24146;DHT22;12308;50.948;4.706;2022-09-27T17:37:12;13.10;99.90
24146;DHT22;12308;50.948;4.706;2022-09-27T17:39:38;13.00;99.90
24146;DHT22;12308;50.948;4.706;2022-09-27T17:42:03;13.10;99.90
24146;DHT22;12308;50.948;4.706;2022-09-27T17:44:29;13.00;99.90
24146;DHT22;12308;50.948;4.706;2022-09-27T17:46:55;12.90;99.90
24146;DHT22;12308;50.948;4.706;2022-09-27T17:49:39;12.70;99.90
24146;DHT22;12308;50.948;4.706;2022-09-27T17:52:23;12.40;99.90
24146;DHT22;12308;50.948;4.706;2022-09-27T17:54:51;12.10;99.90
24146;DHT22;12308;50.948;4.706;2022-09-27T17:57:19;11.80;99.90
24146;DHT22;12308;50.948;4.706;2022-09-27T17:59:45;11.60;99.90
24146;DHT22;12308;50.948;4.706;2022-09-27T18:02:11;11.50;99.90
24146;DHT22;12308;50.948;4.706;2022-09-27T18:04:36;11.30;99.90
24146;DHT22;12308;50.948;4.706;2022-09-27T18:07:02;11.20;99.90
24146;DHT22;12308;50.948;4.706;2022-09-27T18:09:28;11.10;99.90
24146;DHT22;12308;50.948;4.706;2022-09-27T18:11:53;11.00;99.90
24146;DHT22;12308;50.948;4.706;2022-09-27T18:14:21;11.00;99.90
24146;DHT22;12308;50.948;4.706;2022-09-27T18:16:47;11.00;99.90
24146;DHT22;12308;50.948;4.706;2022-09-27T18:19:14;11.00;99.90